sensor_id;sensor_type;location;lat;lon;timestamp;temperature;humidity
435;DHT22;204;48.942;9.256;2023-07-02T00:01:11;18.30;1.00
435;DHT22;204;48.942;9.256;2023-07-02T00:03:39;18.20;1.00
435;DHT22;204;48.942;9.256;2023-07-02T00:06:05;18.00;1.00
435;DHT22;204;48.942;9.256;2023-07-02T00:08:31;18.00;1.00
435;DHT22;204;48.942;9.256;2023-07-02T00:10:57;17.90;1.00
435;DHT22;204;48.942;9.256;2023-07-02T00:13:22;17.80;1.00
435;DHT22;204;48.942;9.256;2023-07-02T00:15:48;17.80;1.00
435;DHT22;204;48.942;9.256;2023-07-02T00:18:13;17.70;1.00
435;DHT22;204;48.942;9.256;2023-07-02T00:20:43;17.60;1.00
435;DHT22;204;48.942;9.256;2023-07-02T00:23:09;17.60;1.00
435;DHT22;204;48.942;9.256;2023-07-02T00:25:36;17.50;1.00
435;DHT22;204;48.942;9.256;2023-07-02T00:28:02;17.40;1.00
435;DHT22;204;48.942;9.256;2023-07-02T00:30:27;17.40;1.00
435;DHT22;204;48.942;9.256;2023-07-02T00:32:53;17.30;1.00
435;DHT22;204;48.942;9.256;2023-07-02T00:35:18;17.30;1.00
435;DHT22;204;48.942;9.256;2023-07-02T00:37:44;17.20;1.00
435;DHT22;204;48.942;9.256;2023-07-02T00:40:10;17.10;1.00
435;DHT22;204;48.942;9.256;2023-07-02T00:42:35;17.10;1.00
435;DHT22;204;48.942;9.256;2023-07-02T00:45:01;17.10;1.00
435;DHT22;204;48.942;9.256;2023-07-02T00:47:34;17.10;1.00
435;DHT22;204;48.942;9.256;2023-07-02T00:50:00;17.00;1.00
435;DHT22;204;48.942;9.256;2023-07-02T00:52:27;17.00;1.00
435;DHT22;204;48.942;9.256;2023-07-02T00:54:53;16.90;1.00
435;DHT22;204;48.942;9.256;2023-07-02T00:57:19;16.90;1.00
435;DHT22;204;48.942;9.256;2023-07-02T00:59:45;16.90;1.00
435;DHT22;204;48.942;9.256;2023-07-02T01:02:10;16.80;1.00
435;DHT22;204;48.942;9.256;2023-07-02T01:04:41;16.80;1.00
435;DHT22;204;48.942;9.256;2023-07-02T01:07:06;16.80;1.00
435;DHT22;204;48.942;9.256;2023-07-02T01:09:35;16.70;1.00
435;DHT22;204;48.942;9.256;2023-07-02T01:12:06;16.70;1.00
435;DHT22;204;48.942;9.256;2023-07-02T01:14:42;16.70;1.00
435;DHT22;204;48.942;9.256;2023-07-02T01:17:09;16.60;1.00
435;DHT22;204;48.942;9.256;2023-07-02T01:22:24;16.60;1.00
435;DHT22;204;48.942;9.256;2023-07-02T01:24:51;16.60;1.00
435;DHT22;204;48.942;9.256;2023-07-02T01:27:17;16.60;1.00
435;DHT22;204;48.942;9.256;2023-07-02T01:29:43;16.60;1.00
435;DHT22;204;48.942;9.256;2023-07-02T01:32:12;16.60;1.00
435;DHT22;204;48.942;9.256;2023-07-02T01:34:37;16.70;1.00
435;DHT22;204;48.942;9.256;2023-07-02T01:37:04;16.70;1.00
435;DHT22;204;48.942;9.256;2023-07-02T01:39:30;16.80;1.00
435;DHT22;204;48.942;9.256;2023-07-02T01:42:10;16.80;1.00
435;DHT22;204;48.942;9.256;2023-07-02T01:44:39;16.80;1.00
435;DHT22;204;48.942;9.256;2023-07-02T01:47:05;16.80;1.00
435;DHT22;204;48.942;9.256;2023-07-02T01:49:31;16.80;1.00
435;DHT22;204;48.942;9.256;2023-07-02T01:51:57;16.80;1.00
435;DHT22;204;48.942;9.256;2023-07-02T01:54:26;16.90;1.00
435;DHT22;204;48.942;9.256;2023-07-02T01:56:55;16.90;1.00
435;DHT22;204;48.942;9.256;2023-07-02T01:59:21;16.90;1.00
435;DHT22;204;48.942;9.256;2023-07-02T02:01:47;16.90;1.00
435;DHT22;204;48.942;9.256;2023-07-02T02:04:13;16.90;1.00
435;DHT22;204;48.942;9.256;2023-07-02T02:06:39;16.90;1.00
435;DHT22;204;48.942;9.256;2023-07-02T02:09:05;16.90;1.00
435;DHT22;204;48.942;9.256;2023-07-02T02:11:39;16.90;1.00
435;DHT22;204;48.942;9.256;2023-07-02T02:14:04;16.90;1.00
435;DHT22;204;48.942;9.256;2023-07-02T02:16:30;16.90;1.00
435;DHT22;204;48.942;9.256;2023-07-02T02:18:56;16.90;1.00
435;DHT22;204;48.942;9.256;2023-07-02T02:21:22;17.00;1.00
435;DHT22;204;48.942;9.256;2023-07-02T02:23:48;17.00;1.00
435;DHT22;204;48.942;9.256;2023-07-02T02:26:14;17.00;1.00
435;DHT22;204;48.942;9.256;2023-07-02T02:28:41;17.10;1.00
435;DHT22;204;48.942;9.256;2023-07-02T02:31:07;17.10;1.00
435;DHT22;204;48.942;9.256;2023-07-02T02:33:34;17.20;1.00
435;DHT22;204;48.942;9.256;2023-07-02T02:36:03;17.20;1.00
435;DHT22;204;48.942;9.256;2023-07-02T02:38:29;17.30;1.00
435;DHT22;204;48.942;9.256;2023-07-02T02:40:54;17.30;1.00
435;DHT22;204;48.942;9.256;2023-07-02T02:43:20;17.40;1.00
435;DHT22;204;48.942;9.256;2023-07-02T02:45:46;17.40;1.00
435;DHT22;204;48.942;9.256;2023-07-02T02:48:12;17.40;1.00
435;DHT22;204;48.942;9.256;2023-07-02T02:50:37;17.50;1.00
435;DHT22;204;48.942;9.256;2023-07-02T02:53:09;17.50;1.00
435;DHT22;204;48.942;9.256;2023-07-02T02:55:36;17.50;1.00
435;DHT22;204;48.942;9.256;2023-07-02T02:58:02;17.60;1.00
435;DHT22;204;48.942;9.256;2023-07-02T03:00:27;17.60;1.00
435;DHT22;204;48.942;9.256;2023-07-02T03:02:53;17.70;1.00
435;DHT22;204;48.942;9.256;2023-07-02T03:05:18;17.70;1.00
435;DHT22;204;48.942;9.256;2023-07-02T03:07:44;17.70;1.00
435;DHT22;204;48.942;9.256;2023-07-02T03:10:10;17.70;1.00
435;DHT22;204;48.942;9.256;2023-07-02T03:12:35;17.80;1.00
435;DHT22;204;48.942;9.256;2023-07-02T03:15:01;17.60;1.00
435;DHT22;204;48.942;9.256;2023-07-02T03:17:27;17.40;1.00
435;DHT22;204;48.942;9.256;2023-07-02T03:19:53;17.20;1.00
435;DHT22;204;48.942;9.256;2023-07-02T03:22:18;17.10;1.00
435;DHT22;204;48.942;9.256;2023-07-02T03:24:44;17.00;1.00
435;DHT22;204;48.942;9.256;2023-07-02T03:27:09;17.00;1.00
435;DHT22;204;48.942;9.256;2023-07-02T03:29:35;16.90;1.00
435;DHT22;204;48.942;9.256;2023-07-02T03:32:01;16.90;1.00
435;DHT22;204;48.942;9.256;2023-07-02T03:34:27;16.80;1.00
435;DHT22;204;48.942;9.256;2023-07-02T03:36:53;16.80;1.00
435;DHT22;204;48.942;9.256;2023-07-02T03:39:19;16.80;1.00
435;DHT22;204;48.942;9.256;2023-07-02T03:41:45;16.80;1.00
435;DHT22;204;48.942;9.256;2023-07-02T03:44:10;16.80;1.00
435;DHT22;204;48.942;9.256;2023-07-02T03:46:36;16.70;1.00
435;DHT22;204;48.942;9.256;2023-07-02T03:49:02;16.60;1.00
435;DHT22;204;48.942;9.256;2023-07-02T03:51:29;16.60;1.00
435;DHT22;204;48.942;9.256;2023-07-02T03:53:54;16.70;1.00
435;DHT22;204;48.942;9.256;2023-07-02T03:56:20;16.70;1.00
435;DHT22;204;48.942;9.256;2023-07-02T03:58:46;16.70;1.00
435;DHT22;204;48.942;9.256;2023-07-02T04:01:11;16.80;1.00
435;DHT22;204;48.942;9.256;2023-07-02T04:03:37;16.80;1.00
435;DHT22;204;48.942;9.256;2023-07-02T04:06:03;16.80;1.00
435;DHT22;204;48.942;9.256;2023-07-02T04:08:32;16.80;1.00
435;DHT22;204;48.942;9.256;2023-07-02T04:10:58;16.80;1.00
435;DHT22;204;48.942;9.256;2023-07-02T04:13:23;16.90;1.00
435;DHT22;204;48.942;9.256;2023-07-02T04:15:49;17.00;1.00
435;DHT22;204;48.942;9.256;2023-07-02T04:18:14;17.00;1.00
435;DHT22;204;48.942;9.256;2023-07-02T04:20:40;17.10;1.00
435;DHT22;204;48.942;9.256;2023-07-02T04:23:06;17.10;1.00
435;DHT22;204;48.942;9.256;2023-07-02T04:25:31;17.20;1.00
435;DHT22;204;48.942;9.256;2023-07-02T04:27:57;17.20;1.00
435;DHT22;204;48.942;9.256;2023-07-02T04:30:25;17.30;1.00
435;DHT22;204;48.942;9.256;2023-07-02T04:32:51;17.40;1.00
435;DHT22;204;48.942;9.256;2023-07-02T04:35:17;17.40;1.00
435;DHT22;204;48.942;9.256;2023-07-02T04:37:42;17.50;1.00
435;DHT22;204;48.942;9.256;2023-07-02T04:40:08;17.50;1.00
435;DHT22;204;48.942;9.256;2023-07-02T04:42:40;17.60;1.00
435;DHT22;204;48.942;9.256;2023-07-02T04:45:07;17.70;1.00
435;DHT22;204;48.942;9.256;2023-07-02T04:47:34;17.80;1.00
435;DHT22;204;48.942;9.256;2023-07-02T04:50:00;17.90;1.00
435;DHT22;204;48.942;9.256;2023-07-02T04:52:26;18.00;1.00
435;DHT22;204;48.942;9.256;2023-07-02T04:54:52;18.10;1.00
435;DHT22;204;48.942;9.256;2023-07-02T04:57:17;18.30;1.00
435;DHT22;204;48.942;9.256;2023-07-02T04:59:43;18.50;1.00
435;DHT22;204;48.942;9.256;2023-07-02T05:02:09;18.60;1.00
435;DHT22;204;48.942;9.256;2023-07-02T05:04:35;18.80;1.00
435;DHT22;204;48.942;9.256;2023-07-02T05:07:03;19.20;1.00
435;DHT22;204;48.942;9.256;2023-07-02T05:09:28;19.40;1.00
435;DHT22;204;48.942;9.256;2023-07-02T05:11:54;19.60;1.00
435;DHT22;204;48.942;9.256;2023-07-02T05:14:19;19.80;1.00
435;DHT22;204;48.942;9.256;2023-07-02T05:16:45;20.10;1.00
435;DHT22;204;48.942;9.256;2023-07-02T05:19:11;20.40;1.00
435;DHT22;204;48.942;9.256;2023-07-02T05:21:36;20.80;99.90
435;DHT22;204;48.942;9.256;2023-07-02T05:24:02;21.10;99.90
435;DHT22;204;48.942;9.256;2023-07-02T05:26:28;21.40;99.90
435;DHT22;204;48.942;9.256;2023-07-02T05:28:53;21.40;99.90
435;DHT22;204;48.942;9.256;2023-07-02T05:31:19;21.30;99.90
435;DHT22;204;48.942;9.256;2023-07-02T05:33:45;21.50;99.90
435;DHT22;204;48.942;9.256;2023-07-02T05:36:11;21.60;99.90
435;DHT22;204;48.942;9.256;2023-07-02T05:38:36;21.80;99.90
435;DHT22;204;48.942;9.256;2023-07-02T05:41:02;21.90;99.90
435;DHT22;204;48.942;9.256;2023-07-02T05:43:28;21.80;99.90
435;DHT22;204;48.942;9.256;2023-07-02T05:45:54;21.60;99.90
435;DHT22;204;48.942;9.256;2023-07-02T05:48:20;21.50;99.90
435;DHT22;204;48.942;9.256;2023-07-02T05:50:45;21.70;99.90
435;DHT22;204;48.942;9.256;2023-07-02T05:53:11;21.80;99.90
435;DHT22;204;48.942;9.256;2023-07-02T05:55:37;21.90;99.90
435;DHT22;204;48.942;9.256;2023-07-02T05:58:03;21.70;99.90
435;DHT22;204;48.942;9.256;2023-07-02T06:00:29;21.50;99.90
435;DHT22;204;48.942;9.256;2023-07-02T06:02:54;21.30;99.90
435;DHT22;204;48.942;9.256;2023-07-02T06:05:20;21.20;99.90
435;DHT22;204;48.942;9.256;2023-07-02T06:07:46;21.30;99.90
435;DHT22;204;48.942;9.256;2023-07-02T06:10:11;21.40;99.90
435;DHT22;204;48.942;9.256;2023-07-02T06:12:37;21.60;99.90
435;DHT22;204;48.942;9.256;2023-07-02T06:15:04;21.70;99.90
435;DHT22;204;48.942;9.256;2023-07-02T06:17:29;21.80;99.90
435;DHT22;204;48.942;9.256;2023-07-02T06:19:56;21.80;99.90
435;DHT22;204;48.942;9.256;2023-07-02T06:22:22;21.90;99.90
435;DHT22;204;48.942;9.256;2023-07-02T06:24:47;21.80;99.90
435;DHT22;204;48.942;9.256;2023-07-02T06:27:13;21.90;99.90
435;DHT22;204;48.942;9.256;2023-07-02T06:29:38;21.90;99.90
435;DHT22;204;48.942;9.256;2023-07-02T06:32:04;21.80;99.90
435;DHT22;204;48.942;9.256;2023-07-02T06:34:30;21.60;99.90
435;DHT22;204;48.942;9.256;2023-07-02T06:36:55;21.40;99.90
435;DHT22;204;48.942;9.256;2023-07-02T06:39:21;21.10;99.90
435;DHT22;204;48.942;9.256;2023-07-02T06:41:47;21.00;99.90
435;DHT22;204;48.942;9.256;2023-07-02T06:44:12;21.00;99.90
435;DHT22;204;48.942;9.256;2023-07-02T06:46:38;20.90;99.90
435;DHT22;204;48.942;9.256;2023-07-02T06:49:03;20.90;99.90
435;DHT22;204;48.942;9.256;2023-07-02T06:51:29;21.00;99.90
435;DHT22;204;48.942;9.256;2023-07-02T06:53:55;21.10;99.90
435;DHT22;204;48.942;9.256;2023-07-02T06:56:20;21.10;99.90
435;DHT22;204;48.942;9.256;2023-07-02T06:58:46;21.20;99.90
435;DHT22;204;48.942;9.256;2023-07-02T07:01:12;21.30;99.90
435;DHT22;204;48.942;9.256;2023-07-02T07:03:37;21.50;99.90
435;DHT22;204;48.942;9.256;2023-07-02T07:06:03;21.60;99.90
435;DHT22;204;48.942;9.256;2023-07-02T07:08:29;21.60;99.90
435;DHT22;204;48.942;9.256;2023-07-02T07:10:55;21.50;99.90
435;DHT22;204;48.942;9.256;2023-07-02T07:13:20;21.50;99.90
435;DHT22;204;48.942;9.256;2023-07-02T07:15:46;21.50;99.90
435;DHT22;204;48.942;9.256;2023-07-02T07:18:12;21.60;99.90
435;DHT22;204;48.942;9.256;2023-07-02T07:20:39;21.70;99.90
435;DHT22;204;48.942;9.256;2023-07-02T07:23:08;21.70;99.90
435;DHT22;204;48.942;9.256;2023-07-02T07:25:34;21.90;99.90
435;DHT22;204;48.942;9.256;2023-07-02T07:28:00;21.90;99.90
435;DHT22;204;48.942;9.256;2023-07-02T07:30:25;21.90;99.90
435;DHT22;204;48.942;9.256;2023-07-02T07:32:56;22.00;99.90
435;DHT22;204;48.942;9.256;2023-07-02T07:35:22;22.10;99.90
435;DHT22;204;48.942;9.256;2023-07-02T07:37:48;22.20;99.90
435;DHT22;204;48.942;9.256;2023-07-02T07:40:14;22.30;99.90
435;DHT22;204;48.942;9.256;2023-07-02T07:42:41;22.40;99.90
435;DHT22;204;48.942;9.256;2023-07-02T07:45:09;22.40;99.90
435;DHT22;204;48.942;9.256;2023-07-02T07:47:34;22.50;99.90
435;DHT22;204;48.942;9.256;2023-07-02T07:50:00;22.60;99.90
435;DHT22;204;48.942;9.256;2023-07-02T07:52:25;22.60;99.90
435;DHT22;204;48.942;9.256;2023-07-02T07:54:51;22.70;99.90
435;DHT22;204;48.942;9.256;2023-07-02T07:57:17;22.70;99.90
435;DHT22;204;48.942;9.256;2023-07-02T07:59:42;22.80;99.90
435;DHT22;204;48.942;9.256;2023-07-02T08:02:08;22.80;99.90
435;DHT22;204;48.942;9.256;2023-07-02T08:04:34;22.90;99.90
435;DHT22;204;48.942;9.256;2023-07-02T08:07:00;23.10;99.90
435;DHT22;204;48.942;9.256;2023-07-02T08:09:25;23.00;99.90
435;DHT22;204;48.942;9.256;2023-07-02T08:11:51;23.10;99.90
435;DHT22;204;48.942;9.256;2023-07-02T08:14:17;23.20;99.90
435;DHT22;204;48.942;9.256;2023-07-02T08:16:45;23.40;99.90
435;DHT22;204;48.942;9.256;2023-07-02T08:19:11;23.60;99.90
435;DHT22;204;48.942;9.256;2023-07-02T08:21:36;23.70;99.90
435;DHT22;204;48.942;9.256;2023-07-02T08:24:03;23.80;99.90
435;DHT22;204;48.942;9.256;2023-07-02T08:26:29;23.80;99.90
435;DHT22;204;48.942;9.256;2023-07-02T08:28:54;23.90;99.90
435;DHT22;204;48.942;9.256;2023-07-02T08:31:20;23.80;99.90
435;DHT22;204;48.942;9.256;2023-07-02T08:33:45;23.90;99.90
435;DHT22;204;48.942;9.256;2023-07-02T08:36:11;24.10;99.90
435;DHT22;204;48.942;9.256;2023-07-02T08:38:39;24.40;99.90
435;DHT22;204;48.942;9.256;2023-07-02T08:41:07;24.80;99.90
435;DHT22;204;48.942;9.256;2023-07-02T08:43:33;24.90;99.90
435;DHT22;204;48.942;9.256;2023-07-02T08:46:02;24.90;99.90
435;DHT22;204;48.942;9.256;2023-07-02T08:48:28;24.70;99.90
435;DHT22;204;48.942;9.256;2023-07-02T08:50:55;24.40;99.90
435;DHT22;204;48.942;9.256;2023-07-02T08:53:21;24.50;99.90
435;DHT22;204;48.942;9.256;2023-07-02T08:55:55;24.70;99.90
435;DHT22;204;48.942;9.256;2023-07-02T08:58:21;25.00;99.90
435;DHT22;204;48.942;9.256;2023-07-02T09:01:13;25.20;99.90
435;DHT22;204;48.942;9.256;2023-07-02T09:03:39;25.50;99.90
435;DHT22;204;48.942;9.256;2023-07-02T09:06:10;25.60;99.90
435;DHT22;204;48.942;9.256;2023-07-02T09:08:36;25.60;99.90
435;DHT22;204;48.942;9.256;2023-07-02T09:11:11;25.40;99.90
435;DHT22;204;48.942;9.256;2023-07-02T09:13:53;25.20;99.90
435;DHT22;204;48.942;9.256;2023-07-02T09:16:32;25.00;99.90
435;DHT22;204;48.942;9.256;2023-07-02T09:19:08;25.10;99.90
435;DHT22;204;48.942;9.256;2023-07-02T09:21:48;25.10;99.90
435;DHT22;204;48.942;9.256;2023-07-02T09:24:15;25.30;99.90
435;DHT22;204;48.942;9.256;2023-07-02T09:26:48;25.40;99.90
435;DHT22;204;48.942;9.256;2023-07-02T09:29:21;25.30;99.90
435;DHT22;204;48.942;9.256;2023-07-02T09:31:48;25.10;99.90
435;DHT22;204;48.942;9.256;2023-07-02T09:34:14;25.00;99.90
435;DHT22;204;48.942;9.256;2023-07-02T09:36:40;24.90;99.90
435;DHT22;204;48.942;9.256;2023-07-02T09:39:14;24.80;99.90
435;DHT22;204;48.942;9.256;2023-07-02T09:41:41;24.80;99.90
435;DHT22;204;48.942;9.256;2023-07-02T09:44:11;24.90;99.90
435;DHT22;204;48.942;9.256;2023-07-02T09:46:49;24.90;99.90
435;DHT22;204;48.942;9.256;2023-07-02T09:49:17;24.70;99.90
435;DHT22;204;48.942;9.256;2023-07-02T09:51:45;24.50;99.90
435;DHT22;204;48.942;9.256;2023-07-02T09:54:11;24.40;99.90
435;DHT22;204;48.942;9.256;2023-07-02T09:56:37;24.60;99.90
435;DHT22;204;48.942;9.256;2023-07-02T09:59:03;24.70;99.90
435;DHT22;204;48.942;9.256;2023-07-02T10:01:28;25.00;99.90
435;DHT22;204;48.942;9.256;2023-07-02T10:03:54;25.00;99.90
435;DHT22;204;48.942;9.256;2023-07-02T10:06:20;24.80;99.90
435;DHT22;204;48.942;9.256;2023-07-02T10:08:55;24.80;99.90
435;DHT22;204;48.942;9.256;2023-07-02T10:11:21;24.90;99.90
435;DHT22;204;48.942;9.256;2023-07-02T10:13:58;25.10;99.90
435;DHT22;204;48.942;9.256;2023-07-02T10:16:24;25.10;99.90
435;DHT22;204;48.942;9.256;2023-07-02T10:18:53;25.10;99.90
435;DHT22;204;48.942;9.256;2023-07-02T10:21:19;25.10;99.90
435;DHT22;204;48.942;9.256;2023-07-02T10:23:44;25.10;99.90
435;DHT22;204;48.942;9.256;2023-07-02T10:26:14;25.20;99.90
435;DHT22;204;48.942;9.256;2023-07-02T10:28:40;25.30;99.90
435;DHT22;204;48.942;9.256;2023-07-02T10:31:20;25.40;99.90
435;DHT22;204;48.942;9.256;2023-07-02T10:33:46;25.50;99.90
435;DHT22;204;48.942;9.256;2023-07-02T10:36:22;25.50;99.90
435;DHT22;204;48.942;9.256;2023-07-02T10:38:49;25.50;99.90
435;DHT22;204;48.942;9.256;2023-07-02T10:41:26;25.50;99.90
435;DHT22;204;48.942;9.256;2023-07-02T10:43:52;25.60;99.90
435;DHT22;204;48.942;9.256;2023-07-02T10:46:19;25.70;99.90
435;DHT22;204;48.942;9.256;2023-07-02T10:48:56;25.70;99.90
435;DHT22;204;48.942;9.256;2023-07-02T10:51:23;25.70;99.90
435;DHT22;204;48.942;9.256;2023-07-02T10:54:02;25.80;99.90
435;DHT22;204;48.942;9.256;2023-07-02T10:56:30;25.90;99.90
435;DHT22;204;48.942;9.256;2023-07-02T10:58:56;25.90;99.90
435;DHT22;204;48.942;9.256;2023-07-02T11:01:30;26.10;99.90
435;DHT22;204;48.942;9.256;2023-07-02T11:03:57;26.30;99.90
435;DHT22;204;48.942;9.256;2023-07-02T11:06:23;26.40;99.90
435;DHT22;204;48.942;9.256;2023-07-02T11:08:49;26.40;99.90
435;DHT22;204;48.942;9.256;2023-07-02T11:11:14;26.50;99.90
435;DHT22;204;48.942;9.256;2023-07-02T11:13:47;26.40;99.90
435;DHT22;204;48.942;9.256;2023-07-02T11:16:26;26.10;99.90
435;DHT22;204;48.942;9.256;2023-07-02T11:19:07;26.20;99.90
435;DHT22;204;48.942;9.256;2023-07-02T11:21:36;26.20;99.90
435;DHT22;204;48.942;9.256;2023-07-02T11:24:03;26.20;99.90
435;DHT22;204;48.942;9.256;2023-07-02T11:26:41;26.30;99.90
435;DHT22;204;48.942;9.256;2023-07-02T11:29:11;26.30;99.90
435;DHT22;204;48.942;9.256;2023-07-02T11:31:37;26.20;99.90
435;DHT22;204;48.942;9.256;2023-07-02T11:34:14;26.20;99.90
435;DHT22;204;48.942;9.256;2023-07-02T11:36:40;26.50;99.90
435;DHT22;204;48.942;9.256;2023-07-02T11:39:05;26.60;99.90
435;DHT22;204;48.942;9.256;2023-07-02T11:41:38;26.60;99.90
435;DHT22;204;48.942;9.256;2023-07-02T11:44:04;26.40;99.90
435;DHT22;204;48.942;9.256;2023-07-02T11:46:30;26.40;99.90
435;DHT22;204;48.942;9.256;2023-07-02T11:48:55;26.50;99.90
435;DHT22;204;48.942;9.256;2023-07-02T11:51:21;26.70;99.90
435;DHT22;204;48.942;9.256;2023-07-02T11:53:47;26.90;99.90
435;DHT22;204;48.942;9.256;2023-07-02T11:56:12;27.20;99.90
435;DHT22;204;48.942;9.256;2023-07-02T11:58:41;27.40;99.90
435;DHT22;204;48.942;9.256;2023-07-02T12:01:07;27.40;99.90
435;DHT22;204;48.942;9.256;2023-07-02T12:03:33;27.10;99.90
435;DHT22;204;48.942;9.256;2023-07-02T12:05:58;26.90;99.90
435;DHT22;204;48.942;9.256;2023-07-02T12:08:24;26.60;99.90
435;DHT22;204;48.942;9.256;2023-07-02T12:10:50;26.30;99.90
435;DHT22;204;48.942;9.256;2023-07-02T12:13:18;26.30;99.90
435;DHT22;204;48.942;9.256;2023-07-02T12:15:46;26.30;99.90
435;DHT22;204;48.942;9.256;2023-07-02T12:18:12;26.40;99.90
435;DHT22;204;48.942;9.256;2023-07-02T12:20:39;26.60;99.90
435;DHT22;204;48.942;9.256;2023-07-02T12:23:05;27.00;99.90
435;DHT22;204;48.942;9.256;2023-07-02T12:25:31;27.20;99.90
435;DHT22;204;48.942;9.256;2023-07-02T12:27:57;27.30;99.90
435;DHT22;204;48.942;9.256;2023-07-02T12:30:22;27.20;99.90
435;DHT22;204;48.942;9.256;2023-07-02T12:32:48;27.30;99.90
435;DHT22;204;48.942;9.256;2023-07-02T12:35:14;27.40;99.90
435;DHT22;204;48.942;9.256;2023-07-02T12:37:46;27.50;99.90
435;DHT22;204;48.942;9.256;2023-07-02T12:40:12;27.30;99.90
435;DHT22;204;48.942;9.256;2023-07-02T12:42:38;27.10;99.90
435;DHT22;204;48.942;9.256;2023-07-02T12:45:05;26.70;99.90
435;DHT22;204;48.942;9.256;2023-07-02T12:47:31;26.60;99.90
435;DHT22;204;48.942;9.256;2023-07-02T12:50:00;26.40;99.90
435;DHT22;204;48.942;9.256;2023-07-02T12:52:25;26.50;99.90
435;DHT22;204;48.942;9.256;2023-07-02T12:54:51;26.50;99.90
435;DHT22;204;48.942;9.256;2023-07-02T12:57:17;26.60;99.90
435;DHT22;204;48.942;9.256;2023-07-02T12:59:43;26.70;99.90
435;DHT22;204;48.942;9.256;2023-07-02T13:02:10;27.00;99.90
435;DHT22;204;48.942;9.256;2023-07-02T13:04:35;27.10;99.90
435;DHT22;204;48.942;9.256;2023-07-02T13:07:01;27.20;99.90
435;DHT22;204;48.942;9.256;2023-07-02T13:09:27;27.40;99.90
435;DHT22;204;48.942;9.256;2023-07-02T13:11:52;27.60;99.90
435;DHT22;204;48.942;9.256;2023-07-02T13:14:18;27.60;99.90
435;DHT22;204;48.942;9.256;2023-07-02T13:16:44;27.50;99.90
435;DHT22;204;48.942;9.256;2023-07-02T13:19:09;27.30;99.90
435;DHT22;204;48.942;9.256;2023-07-02T13:21:36;27.00;99.90
435;DHT22;204;48.942;9.256;2023-07-02T13:24:02;27.00;99.90
435;DHT22;204;48.942;9.256;2023-07-02T13:26:27;26.70;99.90
435;DHT22;204;48.942;9.256;2023-07-02T13:28:53;26.70;99.90
435;DHT22;204;48.942;9.256;2023-07-02T13:31:18;26.70;99.90
435;DHT22;204;48.942;9.256;2023-07-02T13:33:44;26.60;99.90
435;DHT22;204;48.942;9.256;2023-07-02T13:36:11;26.50;99.90
435;DHT22;204;48.942;9.256;2023-07-02T13:38:37;26.40;99.90
435;DHT22;204;48.942;9.256;2023-07-02T13:41:03;26.40;99.90
435;DHT22;204;48.942;9.256;2023-07-02T13:43:29;26.40;99.90
435;DHT22;204;48.942;9.256;2023-07-02T13:45:55;26.50;99.90
435;DHT22;204;48.942;9.256;2023-07-02T13:48:20;26.50;99.90
435;DHT22;204;48.942;9.256;2023-07-02T13:50:46;26.50;99.90
435;DHT22;204;48.942;9.256;2023-07-02T13:53:11;26.40;99.90
435;DHT22;204;48.942;9.256;2023-07-02T13:55:37;26.50;99.90
435;DHT22;204;48.942;9.256;2023-07-02T13:58:02;26.60;99.90
435;DHT22;204;48.942;9.256;2023-07-02T14:00:28;26.80;99.90
435;DHT22;204;48.942;9.256;2023-07-02T14:02:54;26.80;99.90
435;DHT22;204;48.942;9.256;2023-07-02T14:05:21;26.70;99.90
435;DHT22;204;48.942;9.256;2023-07-02T14:07:47;26.70;99.90
435;DHT22;204;48.942;9.256;2023-07-02T14:10:13;26.70;99.90
435;DHT22;204;48.942;9.256;2023-07-02T14:12:40;26.50;99.90
435;DHT22;204;48.942;9.256;2023-07-02T14:15:06;26.50;99.90
435;DHT22;204;48.942;9.256;2023-07-02T14:17:32;26.50;99.90
435;DHT22;204;48.942;9.256;2023-07-02T14:19:58;26.40;99.90
435;DHT22;204;48.942;9.256;2023-07-02T14:22:23;26.50;99.90
435;DHT22;204;48.942;9.256;2023-07-02T14:24:49;26.50;99.90
435;DHT22;204;48.942;9.256;2023-07-02T14:27:15;26.50;99.90
435;DHT22;204;48.942;9.256;2023-07-02T14:29:41;26.60;99.90
435;DHT22;204;48.942;9.256;2023-07-02T14:32:07;26.60;99.90
435;DHT22;204;48.942;9.256;2023-07-02T14:34:33;26.70;99.90
435;DHT22;204;48.942;9.256;2023-07-02T14:36:58;26.70;99.90
435;DHT22;204;48.942;9.256;2023-07-02T14:39:24;26.70;99.90
435;DHT22;204;48.942;9.256;2023-07-02T14:41:50;26.60;99.90
435;DHT22;204;48.942;9.256;2023-07-02T14:44:15;26.60;99.90
435;DHT22;204;48.942;9.256;2023-07-02T14:46:41;26.60;99.90
435;DHT22;204;48.942;9.256;2023-07-02T14:49:08;26.50;99.90
435;DHT22;204;48.942;9.256;2023-07-02T14:51:33;26.30;99.90
435;DHT22;204;48.942;9.256;2023-07-02T14:53:59;26.30;99.90
435;DHT22;204;48.942;9.256;2023-07-02T14:56:29;26.20;99.90
435;DHT22;204;48.942;9.256;2023-07-02T14:58:54;26.20;99.90
435;DHT22;204;48.942;9.256;2023-07-02T15:01:22;26.20;99.90
435;DHT22;204;48.942;9.256;2023-07-02T15:03:48;26.30;99.90
435;DHT22;204;48.942;9.256;2023-07-02T15:06:16;26.30;99.90
435;DHT22;204;48.942;9.256;2023-07-02T15:08:43;26.20;99.90
435;DHT22;204;48.942;9.256;2023-07-02T15:11:10;26.30;99.90
435;DHT22;204;48.942;9.256;2023-07-02T15:13:36;26.40;99.90
435;DHT22;204;48.942;9.256;2023-07-02T15:16:03;26.50;99.90
435;DHT22;204;48.942;9.256;2023-07-02T15:18:29;26.50;99.90
435;DHT22;204;48.942;9.256;2023-07-02T15:20:55;26.60;99.90
435;DHT22;204;48.942;9.256;2023-07-02T15:23:22;26.70;99.90
435;DHT22;204;48.942;9.256;2023-07-02T15:25:56;26.60;99.90
435;DHT22;204;48.942;9.256;2023-07-02T15:28:23;26.70;99.90
435;DHT22;204;48.942;9.256;2023-07-02T15:30:58;26.60;99.90
435;DHT22;204;48.942;9.256;2023-07-02T15:33:25;26.50;99.90
435;DHT22;204;48.942;9.256;2023-07-02T15:35:51;26.60;99.90
435;DHT22;204;48.942;9.256;2023-07-02T15:38:17;26.60;99.90
435;DHT22;204;48.942;9.256;2023-07-02T15:40:45;26.60;99.90
435;DHT22;204;48.942;9.256;2023-07-02T15:43:11;26.60;99.90
435;DHT22;204;48.942;9.256;2023-07-02T15:45:36;26.60;99.90
435;DHT22;204;48.942;9.256;2023-07-02T15:48:02;26.60;99.90
435;DHT22;204;48.942;9.256;2023-07-02T15:50:28;26.50;99.90
435;DHT22;204;48.942;9.256;2023-07-02T15:52:54;26.50;99.90
435;DHT22;204;48.942;9.256;2023-07-02T15:55:20;26.60;99.90
435;DHT22;204;48.942;9.256;2023-07-02T15:57:47;26.70;99.90
435;DHT22;204;48.942;9.256;2023-07-02T16:00:13;26.70;99.90
435;DHT22;204;48.942;9.256;2023-07-02T16:02:41;26.70;99.90
435;DHT22;204;48.942;9.256;2023-07-02T16:05:07;26.80;99.90
435;DHT22;204;48.942;9.256;2023-07-02T16:07:32;26.80;99.90
435;DHT22;204;48.942;9.256;2023-07-02T16:09:59;26.70;99.90
435;DHT22;204;48.942;9.256;2023-07-02T16:12:24;26.70;99.90
435;DHT22;204;48.942;9.256;2023-07-02T16:14:50;26.60;99.90
435;DHT22;204;48.942;9.256;2023-07-02T16:17:16;26.50;99.90
435;DHT22;204;48.942;9.256;2023-07-02T16:19:42;26.40;99.90
435;DHT22;204;48.942;9.256;2023-07-02T16:22:08;26.40;99.90
435;DHT22;204;48.942;9.256;2023-07-02T16:24:36;26.30;99.90
435;DHT22;204;48.942;9.256;2023-07-02T16:27:05;26.30;99.90
435;DHT22;204;48.942;9.256;2023-07-02T16:29:31;26.20;99.90
435;DHT22;204;48.942;9.256;2023-07-02T16:31:58;26.10;99.90
435;DHT22;204;48.942;9.256;2023-07-02T16:34:25;26.00;99.90
435;DHT22;204;48.942;9.256;2023-07-02T16:36:52;26.10;99.90
435;DHT22;204;48.942;9.256;2023-07-02T16:39:19;26.20;99.90